Time;durP1;ratioP1;P1;durP2;ratioP2;P2;SDS_P1;SDS_P2;PMS_P1;PMS_P2;Temp;Humidity;BMP_temperature;BMP_pressure;BME280_temperature;BME280_humidity;BME280_pressure;Samples;Min_cycle;Max_cycle;Signal;HPM_P1;HPM_P2
2021/12/10 00:01:23;;;;;;;9.27;1.80;;;;;;;-0.96;91.09;94145.69;5017588;28;20213;-82
2021/12/10 00:03:52;;;;;;;4.83;1.40;;;;;;;-0.96;91.18;94135.50;5035381;28;20240;-80
2021/12/10 00:06:33;;;;;;;11.47;2.10;;;;;;;-1.00;91.27;94135.81;5035358;28;20185;-81
2021/12/10 00:09:05;;;;;;;5.20;1.60;;;;;;;-1.12;92.12;94135.00;5017892;28;20235;-81
2021/12/10 00:11:37;;;;;;;2.93;1.63;;;;;;;-1.12;91.89;94137.53;5035735;28;20178;-80
2021/12/10 00:14:04;;;;;;;6.07;1.73;;;;;;;-1.21;92.35;94135.66;5018373;28;20217;-81
2021/12/10 00:16:29;;;;;;;5.03;2.07;;;;;;;-1.21;92.18;94133.13;5018659;28;20178;-82
2021/12/10 00:19:07;;;;;;;3.83;1.70;;;;;;;-1.22;92.30;94139.94;5018958;28;20262;-81
2021/12/10 00:21:33;;;;;;;5.17;1.70;;;;;;;-1.23;92.99;94129.88;5034510;28;20397;-81
2021/12/10 00:23:59;;;;;;;4.27;1.60;;;;;;;-1.28;92.52;94117.47;5035752;28;20197;-81
2021/12/10 00:26:24;;;;;;;4.70;1.60;;;;;;;-1.40;92.82;94108.19;5019319;28;20185;-82
2021/12/10 00:28:51;;;;;;;5.63;1.80;;;;;;;-1.43;93.42;94103.28;5037417;28;20594;-81
2021/12/10 00:31:42;;;;;;;4.93;1.73;;;;;;;-1.46;93.42;94095.88;5002010;28;20653;-81
2021/12/10 00:34:36;;;;;;;2.87;1.40;;;;;;;-1.48;93.08;94092.63;5002209;28;20263;-81
2021/12/10 00:37:05;;;;;;;3.60;1.47;;;;;;;-1.51;92.94;94088.56;5018136;28;20277;-81
2021/12/10 00:39:35;;;;;;;5.30;1.40;;;;;;;-1.50;92.83;94082.56;5036348;28;20173;-81
2021/12/10 00:42:04;;;;;;;3.13;1.30;;;;;;;-1.46;92.75;94083.16;5018504;28;20205;-81
2021/12/10 00:44:29;;;;;;;9.27;1.30;;;;;;;-1.50;92.72;94079.22;5002559;28;20225;-81
2021/12/10 00:46:55;;;;;;;3.90;1.67;;;;;;;-1.51;92.90;94069.94;4999395;28;20190;-81
2021/12/10 00:49:20;;;;;;;7.73;1.50;;;;;;;-1.48;92.12;94062.91;4999916;28;20193;-81
2021/12/10 00:51:47;;;;;;;3.37;1.30;;;;;;;-1.35;91.53;94067.09;5018834;28;20579;-80
2021/12/10 00:54:13;;;;;;;10.30;1.50;;;;;;;-1.45;91.90;94057.56;5035528;28;20215;-81
2021/12/10 00:56:41;;;;;;;6.80;1.63;;;;;;;-1.43;91.71;94055.72;5037491;28;20633;-80
2021/12/10 00:59:07;;;;;;;7.53;2.00;;;;;;;-1.40;91.59;94048.81;5034622;28;20181;-80
2021/12/10 01:01:33;;;;;;;3.97;1.40;;;;;;;-1.42;91.63;94038.69;5019307;28;20208;-81
2021/12/10 01:04:08;;;;;;;4.67;1.43;;;;;;;-1.51;92.14;94039.38;5018734;28;20296;-82
2021/12/10 01:06:34;;;;;;;5.33;1.50;;;;;;;-1.51;91.98;94032.53;5037044;28;20234;-82
2021/12/10 01:09:09;;;;;;;4.70;1.47;;;;;;;-1.53;91.92;94024.22;5018018;28;20192;-82
2021/12/10 01:11:38;;;;;;;6.07;1.80;;;;;;;-1.55;92.24;94015.88;5014649;28;20579;-81
2021/12/10 01:14:17;;;;;;;6.73;1.70;;;;;;;-1.60;91.95;94012.84;5016214;28;20401;-82
2021/12/10 01:27:32;;;;;;;3.37;1.30;;;;;;;-1.69;93.09;94005.09;5013771;28;20192;-82
2021/12/10 01:30:06;;;;;;;5.00;1.50;;;;;;;-1.74;92.75;93985.06;4996592;28;20203;-82
2021/12/10 01:32:34;;;;;;;3.47;1.40;;;;;;;-1.75;93.23;93986.81;5012903;28;20189;-82
2021/12/10 01:35:00;;;;;;;6.90;1.73;;;;;;;-1.82;93.74;93979.72;5016505;28;20213;-82
2021/12/10 01:37:29;;;;;;;4.07;1.83;;;;;;;-1.80;93.74;93976.13;5032609;28;20562;-82
2021/12/10 01:39:56;;;;;;;8.53;1.70;;;;;;;-1.81;94.32;93966.06;5017076;28;20181;-82
2021/12/10 01:44:56;;;;;;;5.40;1.60;;;;;;;-1.92;95.05;93953.34;5033138;28;20220;-82
2021/12/10 01:47:29;;;;;;;5.23;1.73;;;;;;;-1.92;94.79;93953.34;4997922;28;20198;-82
2021/12/10 01:49:55;;;;;;;9.17;1.70;;;;;;;-1.96;94.69;93951.91;5000267;28;20184;-82
2021/12/10 01:52:20;;;;;;;2.53;2.20;;;;;;;-2.00;95.30;93949.59;5015259;28;20683;-81
2021/12/10 01:54:52;;;;;;;6.40;1.93;;;;;;;-2.04;95.90;93953.28;5016251;28;20200;-82
2021/12/10 01:57:18;;;;;;;4.77;1.80;;;;;;;-2.07;96.09;93953.50;5032468;28;20308;-81
2021/12/10 01:59:45;;;;;;;2.30;1.40;;;;;;;-2.08;96.03;93946.81;5032487;28;20215;-82
2021/12/10 02:02:23;;;;;;;5.73;1.77;;;;;;;-2.08;95.97;93941.72;5031618;28;20206;-82
2021/12/10 02:04:49;;;;;;;5.67;1.73;;;;;;;-2.08;95.79;93935.81;4999872;28;20301;-81
2021/12/10 02:07:18;;;;;;;6.20;1.43;;;;;;;-2.08;96.02;93930.75;5031723;28;20213;-82
2021/12/10 02:09:44;;;;;;;4.70;1.70;;;;;;;-2.06;95.71;93932.25;5032539;28;20176;-83
2021/12/10 02:12:10;;;;;;;4.67;2.00;;;;;;;-2.11;95.60;93921.59;5008431;28;20609;-82
2021/12/10 02:14:36;;;;;;;5.90;1.40;;;;;;;-2.10;95.57;93914.78;5022350;28;20272;-82
2021/12/10 02:17:01;;;;;;;5.37;1.60;;;;;;;-2.06;95.87;93906.81;5035865;28;20185;-83
2021/12/10 02:19:28;;;;;;;5.03;1.50;;;;;;;-2.05;95.21;93890.63;5018717;28;20675;-83
2021/12/10 02:21:54;;;;;;;5.87;1.60;;;;;;;-1.98;94.76;93874.91;5015608;28;20283;-83
2021/12/10 02:24:20;;;;;;;5.30;1.20;;;;;;;-1.99;94.54;93884.28;4983126;28;20229;-83
2021/12/10 02:26:57;;;;;;;4.20;1.23;;;;;;;-1.99;94.05;93884.28;4998031;28;20213;-83
2021/12/10 02:29:25;;;;;;;3.97;1.47;;;;;;;-1.98;94.08;93870.63;5032442;28;20220;-82
2021/12/10 02:31:51;;;;;;;6.00;1.67;;;;;;;-2.02;94.17;93870.06;5016780;28;20180;-83
2021/12/10 02:34:16;;;;;;;5.40;1.47;;;;;;;-2.05;94.28;93864.38;5018317;28;20287;-83
2021/12/10 02:36:42;;;;;;;6.97;1.33;;;;;;;-2.02;94.11;93859.88;5000374;28;20220;-83
2021/12/10 02:39:12;;;;;;;5.20;1.70;;;;;;;-2.09;93.63;93857.91;4999940;28;20230;-84
2021/12/10 02:41:39;;;;;;;7.60;1.73;;;;;;;-2.13;94.27;93847.13;4999294;28;20291;-83
2021/12/10 02:44:08;;;;;;;7.00;1.73;;;;;;;-2.06;94.07;93848.31;5032957;28;20680;-83
2021/12/10 02:46:33;;;;;;;4.63;1.53;;;;;;;-2.15;94.08;93843.91;4999920;28;20695;-82
2021/12/10 02:48:58;;;;;;;4.50;1.60;;;;;;;-2.22;94.36;93855.44;5016552;28;20177;-83
2021/12/10 02:51:25;;;;;;;5.77;2.27;;;;;;;-2.24;94.67;93852.19;5014942;28;20195;-83
2021/12/10 02:53:50;;;;;;;5.80;1.67;;;;;;;-2.13;93.83;93844.59;4999754;28;20266;-84
2021/12/10 02:56:18;;;;;;;8.40;1.70;;;;;;;-2.14;94.08;93837.88;5032413;28;20385;-81
2021/12/10 02:58:47;;;;;;;3.47;1.67;;;;;;;-2.09;93.55;93833.28;5015932;28;20382;-82
2021/12/10 03:01:21;;;;;;;5.60;1.70;;;;;;;-2.12;93.81;93833.50;5014911;28;20207;-82
2021/12/10 03:03:46;;;;;;;3.93;1.73;;;;;;;-2.23;93.83;93832.66;5015545;28;20684;-82
2021/12/10 03:06:13;;;;;;;6.37;1.80;;;;;;;-2.29;94.51;93811.06;5032318;28;20190;-81
2021/12/10 03:08:42;;;;;;;5.23;1.60;;;;;;;-2.25;94.61;93804.81;4999212;28;20197;-81
2021/12/10 03:11:08;;;;;;;7.83;1.43;;;;;;;-2.23;94.51;93789.44;5031473;28;20182;-81
2021/12/10 03:13:33;;;;;;;4.40;1.73;;;;;;;-2.37;94.64;93778.56;5015652;28;20205;-82
2021/12/10 03:15:59;;;;;;;5.90;1.53;;;;;;;-2.29;94.96;93781.34;5015933;28;20185;-81
2021/12/10 03:18:24;;;;;;;5.53;1.77;;;;;;;-2.35;95.18;93775.91;4999390;28;20656;-82
2021/12/10 03:20:50;;;;;;;4.30;1.80;;;;;;;-2.31;95.08;93762.03;5030468;28;20182;-81
2021/12/10 03:23:15;;;;;;;7.10;1.80;;;;;;;-2.31;94.76;93749.31;5032465;28;20208;-82
2021/12/10 03:25:41;;;;;;;4.77;2.20;;;;;;;-2.35;94.96;93750.50;5019752;28;20189;-82
2021/12/10 03:28:07;;;;;;;6.20;2.00;;;;;;;-2.35;94.77;93740.31;5036834;28;20190;-82
2021/12/10 03:30:36;;;;;;;3.63;1.73;;;;;;;-2.42;94.72;93729.78;5020826;28;20178;-81
2021/12/10 03:33:02;;;;;;;7.77;2.50;;;;;;;-2.46;94.87;93728.41;5003256;28;20667;-81
2021/12/10 03:35:32;;;;;;;4.57;2.47;;;;;;;-2.48;94.75;93726.88;5019435;28;20201;-81
2021/12/10 03:37:59;;;;;;;6.20;2.30;;;;;;;-2.52;95.29;93712.81;5019436;28;20184;-81
2021/12/10 03:40:25;;;;;;;8.87;2.70;;;;;;;-2.50;95.18;93703.31;5036949;28;20183;-82
2021/12/10 03:42:58;;;;;;;6.93;2.70;;;;;;;-2.50;94.89;93705.88;5003049;28;20761;-81
2021/12/10 03:45:24;;;;;;;5.50;2.90;;;;;;;-2.50;94.93;93704.13;5036808;28;20276;-81
2021/12/10 03:47:50;;;;;;;11.00;3.43;;;;;;;-2.62;95.72;93700.78;5020952;28;20194;-82
2021/12/10 03:50:24;;;;;;;11.67;3.63;;;;;;;-2.54;95.57;93696.88;5020968;28;20270;-81
2021/12/10 03:52:50;;;;;;;10.33;4.23;;;;;;;-2.56;95.31;93696.97;5003530;28;20648;-81
2021/12/10 03:55:15;;;;;;;8.87;4.40;;;;;;;-2.52;94.96;93695.81;5021807;28;20199;-81
2021/12/10 03:57:41;;;;;;;9.30;3.87;;;;;;;-2.53;94.98;93690.84;5021710;28;20651;-80
2021/12/10 04:00:07;;;;;;;5.80;4.17;;;;;;;-2.64;95.77;93687.38;5003607;28;20187;-81
2021/12/10 04:02:32;;;;;;;11.50;5.03;;;;;;;-2.63;95.47;93686.47;5034949;28;20211;-82
2021/12/10 04:04:58;;;;;;;11.47;5.23;;;;;;;-2.68;95.49;93675.81;5037032;28;20576;-81
2021/12/10 04:07:25;;;;;;;9.03;5.07;;;;;;;-2.65;95.28;93679.84;5037085;28;20581;-80
2021/12/10 04:09:51;;;;;;;13.00;6.00;;;;;;;-2.66;95.61;93673.97;5037247;28;20176;-81
2021/12/10 04:12:18;;;;;;;11.03;5.67;;;;;;;-2.70;95.79;93674.31;5034611;28;20601;-81
2021/12/10 04:14:46;;;;;;;9.83;5.20;;;;;;;-2.73;95.84;93674.56;5019222;28;20214;-81
2021/12/10 04:17:12;;;;;;;11.43;6.10;;;;;;;-2.65;95.38;93667.16;5037086;28;20206;-82
2021/12/10 04:19:41;;;;;;;12.03;6.00;;;;;;;-2.71;96.25;93660.00;5019076;28;20270;-82
2021/12/10 04:22:08;;;;;;;12.23;5.70;;;;;;;-2.71;95.91;93662.53;5003970;28;20222;-82
2021/12/10 04:24:36;;;;;;;11.17;6.23;;;;;;;-2.71;96.12;93658.28;5035469;28;20205;-81
2021/12/10 04:27:03;;;;;;;14.50;6.13;;;;;;;-2.69;96.48;93660.69;5020268;28;20263;-83
2021/12/10 04:29:28;;;;;;;12.73;6.40;;;;;;;-2.72;96.05;93659.19;5022104;28;20174;-82
2021/12/10 04:31:56;;;;;;;13.20;6.50;;;;;;;-2.65;96.13;93651.91;5038132;28;20209;-82
2021/12/10 04:34:22;;;;;;;11.23;6.13;;;;;;;-2.74;96.38;93643.25;5021241;28;20195;-81
2021/12/10 04:36:49;;;;;;;12.27;6.23;;;;;;;-2.79;96.00;93635.16;5018386;28;20554;-81
2021/12/10 04:39:15;;;;;;;13.50;6.80;;;;;;;-2.78;96.23;93634.25;5020224;28;20202;-82
2021/12/10 04:41:40;;;;;;;13.37;6.93;;;;;;;-2.80;96.45;93633.56;5020783;28;20206;-81
2021/12/10 04:44:05;;;;;;;12.33;7.57;;;;;;;-2.77;97.14;93618.06;5037532;28;20225;-82
2021/12/10 04:46:31;;;;;;;12.90;7.33;;;;;;;-2.83;96.67;93612.63;5018671;28;20308;-81
2021/12/10 04:48:59;;;;;;;13.53;7.57;;;;;;;-2.82;96.42;93604.13;5033910;28;20187;-81
2021/12/10 04:51:27;;;;;;;14.53;7.67;;;;;;;-2.86;96.50;93598.44;5016790;28;20214;-81
2021/12/10 04:53:55;;;;;;;13.10;7.17;;;;;;;-2.82;96.56;93604.13;5002094;28;20204;-82
2021/12/10 04:56:20;;;;;;;15.53;7.40;;;;;;;-2.80;96.56;93607.34;5034801;28;20272;-81
2021/12/10 04:58:46;;;;;;;13.97;7.70;;;;;;;-2.82;96.94;93606.66;5016134;28;20626;-81
2021/12/10 05:01:11;;;;;;;12.33;8.07;;;;;;;-2.86;96.75;93598.44;5015769;28;20202;-81
2021/12/10 05:03:40;;;;;;;15.70;8.63;;;;;;;-2.92;96.80;93601.44;5017049;28;20288;-82
2021/12/10 05:06:06;;;;;;;15.50;8.17;;;;;;;-2.90;97.04;93595.31;5016585;28;20183;-81
2021/12/10 05:08:32;;;;;;;14.23;8.00;;;;;;;-2.91;97.44;93590.38;5016095;28;20558;-82
2021/12/10 05:10:59;;;;;;;14.90;8.07;;;;;;;-2.95;97.89;93596.59;5012807;28;20658;-81
2021/12/10 05:13:26;;;;;;;15.23;8.07;;;;;;;-2.95;97.47;93583.88;4988504;28;20189;-82
2021/12/10 05:15:57;;;;;;;14.00;8.30;;;;;;;-3.01;97.89;93574.97;4981229;28;20191;-82
2021/12/10 05:18:27;;;;;;;14.53;8.57;;;;;;;-2.95;97.71;93578.81;5004880;28;20178;-81
2021/12/10 05:20:53;;;;;;;13.33;7.50;;;;;;;-2.91;97.57;93575.94;4999647;28;20187;-81
2021/12/10 05:23:19;;;;;;;19.20;9.07;;;;;;;-2.90;97.03;93569.94;4999210;28;20205;-83
2021/12/10 05:25:44;;;;;;;15.63;8.40;;;;;;;-2.89;97.33;93568.19;5017580;28;20179;-82
2021/12/10 05:28:11;;;;;;;17.80;8.03;;;;;;;-2.91;97.68;93559.91;5016747;28;20179;-82
2021/12/10 05:30:37;;;;;;;18.63;8.90;;;;;;;-2.98;97.51;93563.81;5037478;28;20187;-83
2021/12/10 05:33:03;;;;;;;12.50;8.17;;;;;;;-2.92;97.88;93559.06;5040457;28;20175;-83
2021/12/10 05:35:30;;;;;;;11.77;8.30;;;;;;;-2.90;97.65;93551.34;5045743;28;20194;-83
2021/12/10 05:37:55;;;;;;;14.33;8.37;;;;;;;-2.93;97.37;93544.75;5003619;28;20677;-83
2021/12/10 05:40:23;;;;;;;17.50;9.17;;;;;;;-2.94;97.76;93539.78;5036235;28;20187;-83
2021/12/10 05:42:49;;;;;;;15.60;9.53;;;;;;;-2.95;97.38;93538.16;5018501;28;20287;-83
2021/12/10 05:45:16;;;;;;;16.90;9.47;;;;;;;-2.97;97.77;93537.50;5018345;28;20194;-82
2021/12/10 05:47:43;;;;;;;12.90;8.53;;;;;;;-2.95;97.56;93528.00;5019361;28;20175;-81
2021/12/10 05:50:10;;;;;;;14.93;9.00;;;;;;;-2.93;97.75;93538.84;5035489;28;20229;-82
2021/12/10 05:52:36;;;;;;;17.43;9.53;;;;;;;-2.97;97.68;93529.88;5019023;28;20201;-82
2021/12/10 05:55:01;;;;;;;18.40;10.03;;;;;;;-2.96;98.21;93528.94;5000342;28;20231;-82
2021/12/10 05:57:26;;;;;;;13.90;8.87;;;;;;;-2.99;98.52;93517.28;5016655;28;20179;-82
2021/12/10 05:59:51;;;;;;;16.67;9.67;;;;;;;-2.99;98.18;93516.50;5017246;28;20190;-81
2021/12/10 06:02:17;;;;;;;16.53;9.73;;;;;;;-2.88;98.25;93511.38;5032948;28;20202;-79
2021/12/10 06:04:42;;;;;;;19.10;9.37;;;;;;;-2.81;97.88;93509.19;5016647;28;20207;-82
2021/12/10 06:07:08;;;;;;;17.43;9.77;;;;;;;-2.78;97.30;93502.13;5000032;28;20254;-81
2021/12/10 06:09:34;;;;;;;15.33;9.20;;;;;;;-2.78;97.16;93494.53;5033150;28;20182;-80
2021/12/10 06:12:00;;;;;;;17.33;9.13;;;;;;;-2.87;97.20;93490.16;4999505;28;20179;-83
2021/12/10 06:14:26;;;;;;;14.00;9.20;;;;;;;-2.82;97.09;93483.00;5016902;28;20202;-85
2021/12/10 06:16:54;;;;;;;12.73;7.93;;;;;;;-2.84;97.13;93469.56;5033101;28;20189;-81
2021/12/10 06:19:20;;;;;;;16.33;9.07;;;;;;;-2.84;97.14;93459.41;5031658;28;20201;-82
2021/12/10 06:21:45;;;;;;;16.73;8.70;;;;;;;-2.85;96.95;93451.00;5032219;28;20199;-82
2021/12/10 06:24:11;;;;;;;12.53;8.40;;;;;;;-2.82;96.97;93451.69;5016343;28;20681;-83
2021/12/10 06:26:36;;;;;;;17.00;8.47;;;;;;;-2.84;96.58;93434.00;5000329;28;20646;-83
2021/12/10 06:29:03;;;;;;;12.20;7.87;;;;;;;-2.87;97.55;93439.34;5015458;28;20764;-83
2021/12/10 06:31:29;;;;;;;12.13;8.57;;;;;;;-2.87;96.81;93429.19;4998513;28;20177;-83
2021/12/10 06:33:55;;;;;;;11.63;7.90;;;;;;;-2.83;96.46;93430.53;5032716;28;20203;-83
2021/12/10 06:36:22;;;;;;;12.63;8.23;;;;;;;-2.83;96.58;93425.47;5015738;28;20178;-83
2021/12/10 06:38:47;;;;;;;12.87;7.43;;;;;;;-2.89;95.99;93420.88;5015647;28;20314;-82
2021/12/10 06:41:14;;;;;;;13.20;7.83;;;;;;;-2.89;96.59;93410.72;4998927;28;20686;-81
2021/12/10 06:43:39;;;;;;;9.17;6.40;;;;;;;-2.96;96.31;93410.38;5009483;28;20202;-84
2021/12/10 06:46:06;;;;;;;11.47;7.87;;;;;;;-2.94;96.74;93406.00;5018452;28;20217;-84
2021/12/10 06:48:32;;;;;;;11.47;7.27;;;;;;;-2.92;96.07;93416.81;4998007;28;20176;-84
2021/12/10 06:51:01;;;;;;;15.13;7.30;;;;;;;-2.91;96.57;93415.94;5016803;28;20253;-85
2021/12/10 06:53:27;;;;;;;14.07;6.57;;;;;;;-2.91;96.16;93428.63;5015319;28;20186;-83
2021/12/10 06:55:53;;;;;;;9.07;6.30;;;;;;;-2.93;96.17;93424.56;4986400;28;20172;-84
2021/12/10 06:58:32;;;;;;;9.73;6.30;;;;;;;-2.88;95.79;93415.69;4983032;28;20639;-86
2021/12/10 07:01:02;;;;;;;10.47;6.47;;;;;;;-2.93;95.26;93414.41;4999306;28;20666;-84
2021/12/10 07:03:28;;;;;;;12.50;6.47;;;;;;;-2.88;95.86;93407.25;4994287;28;20212;-85
2021/12/10 07:05:55;;;;;;;13.20;6.40;;;;;;;-2.90;95.33;93399.75;5002233;28;20187;-86
2021/12/10 07:08:22;;;;;;;11.90;5.50;;;;;;;-2.89;95.27;93401.38;4990872;28;20225;-83
2021/12/10 07:10:48;;;;;;;13.73;6.07;;;;;;;-2.87;94.82;93394.44;5011920;28;20253;-86
2021/12/10 07:13:53;;;;;;;11.67;5.40;;;;;;;-2.90;95.25;93388.78;4994604;28;20206;-88
2021/12/10 07:16:48;;;;;;;12.20;5.73;;;;;;;-2.87;95.29;93383.47;4958011;28;20238;-86
2021/12/10 07:19:18;;;;;;;12.43;5.43;;;;;;;-2.95;94.81;93378.19;4922024;29;20197;-85
2021/12/10 07:21:51;;;;;;;9.63;5.70;;;;;;;-2.89;94.88;93375.97;4936626;29;20221;-86
2021/12/10 07:27:52;;;;;;;11.93;5.20;;;;;;;-2.86;94.77;93368.09;4825985;29;20190;-87
2021/12/10 07:30:20;;;;;;;10.23;4.90;;;;;;;-2.80;94.25;93373.63;4819687;29;20213;-82
2021/12/10 07:32:46;;;;;;;9.67;5.67;;;;;;;-2.89;94.45;93375.16;4845616;29;20696;-82
2021/12/10 07:35:17;;;;;;;10.17;4.90;;;;;;;-2.83;94.39;93369.59;4861952;29;20250;-82
2021/12/10 07:38:02;;;;;;;;;;;;;;;;;;;;;
2021/12/10 07:40:30;;;;;;;9.90;5.27;;;;;;;-2.93;94.42;93371.25;4829133;29;20205;-85
2021/12/10 07:53:02;;;;;;;6.27;4.40;;;;;;;-2.79;93.73;93370.97;4936570;29;20204;-82
2021/12/10 07:59:08;;;;;;;8.20;4.80;;;;;;;-2.76;93.62;93380.88;4823578;29;20752;-82
2021/12/10 08:01:49;;;;;;;8.50;4.77;;;;;;;-2.74;93.82;93383.28;4809741;29;20261;-83
2021/12/10 08:05:17;;;;;;;9.47;4.77;;;;;;;-2.77;93.39;93371.66;4772334;30;20298;-82
2021/12/10 08:14:53;;;;;;;7.60;4.43;;;;;;;-2.49;92.74;93366.91;5091083;23;20237;-81
2021/12/10 08:17:24;;;;;;;7.13;4.77;;;;;;;-2.41;92.20;93372.19;5014689;28;20760;-85
2021/12/10 08:46:27;;;;;;;9.67;5.17;;;;;;;-1.94;89.88;93359.88;5013611;28;20215;-80
2021/12/10 08:48:53;;;;;;;9.57;5.80;;;;;;;-1.86;89.83;93342.25;5000233;28;20188;-79
2021/12/10 08:51:25;;;;;;;8.80;5.77;;;;;;;-1.89;89.62;93334.88;5009246;28;20191;-79
2021/12/10 08:53:51;;;;;;;11.20;5.47;;;;;;;-1.77;89.37;93332.16;4994578;28;20617;-83
2021/12/10 08:56:17;;;;;;;8.03;5.00;;;;;;;-1.81;89.50;93330.78;4985109;28;20185;-84
2021/12/10 08:58:48;;;;;;;7.77;4.33;;;;;;;-1.90;89.25;93321.38;4964175;28;20223;-81
2021/12/10 09:01:23;;;;;;;8.23;5.40;;;;;;;-1.76;89.62;93317.69;4983103;28;20177;-82
2021/12/10 11:11:51;;;;;;;3.83;2.00;;;;;;;-0.31;82.36;93163.06;5182432;23;20253;-81
2021/12/10 11:18:35;;;;;;;;;;;;;;;;;;;;;
2021/12/10 11:21:12;;;;;;;2.57;1.67;;;;;;;-0.49;83.98;93172.41;4800053;29;20298;-81
2021/12/10 11:23:56;;;;;;;4.33;2.00;;;;;;;-0.45;84.35;93176.28;4801577;29;20244;-81
2021/12/10 11:30:44;;;;;;;;;;;;;;;;;;;;;
2021/12/10 12:18:54;;;;;;;4.47;3.20;;;;;;;-0.48;90.30;93138.31;4979097;28;20227;-81
2021/12/10 12:37:35;;;;;;;4.37;3.20;;;;;;;-0.27;91.18;93120.22;4957379;28;20220;-83
2021/12/10 12:41:12;;;;;;;;;;;;;;;;;;;;;
2021/12/10 12:44:15;;;;;;;4.57;3.57;;;;;;;-0.29;91.65;93129.78;4943498;28;20255;-84
2021/12/10 12:47:36;;;;;;;5.40;4.00;;;;;;;-0.38;92.42;93138.28;4956262;29;20188;-84
2021/12/10 12:51:05;;;;;;;5.13;4.13;;;;;;;-0.35;92.54;93120.97;4917368;29;20201;-84
2021/12/10 12:54:12;;;;;;;;;;;;;;;;;;;;;
2021/12/10 12:56:59;;;;;;;6.63;3.20;;;;;;;-0.49;92.95;93118.88;4842448;29;20207;-85
2021/12/10 13:00:07;;;;;;;;;;;;;;;;;;;;;
2021/12/10 13:03:12;;;;;;;2.93;2.70;;;;;;;-0.44;92.83;93128.63;4834058;29;20231;-84
2021/12/10 13:06:23;;;;;;;3.83;3.27;;;;;;;-0.39;92.86;93131.56;4829409;29;20597;-83
2021/12/10 13:13:43;;;;;;;5.20;2.90;;;;;;;-0.41;92.98;93126.63;4787587;30;20280;-84
2021/12/10 13:17:01;;;;;;;;;;;;;;;;;;;;;
2021/12/10 13:20:20;;;;;;;4.37;3.77;;;;;;;-0.37;93.21;93134.78;4752409;30;20198;-84
2021/12/10 13:24:09;;;;;;;5.03;3.00;;;;;;;-0.44;93.51;93128.63;4737008;30;20254;-83
2021/12/10 13:30:31;;;;;;;4.53;3.90;;;;;;;-0.34;93.26;93142.97;4750371;30;20202;-84
2021/12/10 13:40:18;;;;;;;6.57;4.83;;;;;;;-0.40;93.37;93158.81;4715018;30;20247;-82
2021/12/10 13:42:44;;;;;;;5.33;4.13;;;;;;;-0.26;93.28;93159.31;4698231;30;20412;-82
2021/12/10 13:45:09;;;;;;;13.63;8.43;;;;;;;-0.30;93.39;93153.69;4713817;30;20225;-83
2021/12/10 13:47:50;;;;;;;4.93;3.97;;;;;;;-0.27;93.38;93163.59;4714518;30;20216;-84
2021/12/10 13:50:20;;;;;;;3.77;3.37;;;;;;;-0.23;93.47;93171.78;4714773;30;20219;-84
2021/12/10 13:52:55;;;;;;;5.30;3.10;;;;;;;-0.18;93.52;93172.13;4722537;30;20207;-83
2021/12/10 15:59:39;;;;;;;1.63;1.40;;;;;;;0.47;99.14;93349.06;5019738;28;20229;-82
2021/12/10 16:02:07;;;;;;;3.73;2.80;;;;;;;0.51;98.79;93365.69;4981462;28;20187;-83
2021/12/10 16:04:39;;;;;;;2.73;2.20;;;;;;;0.54;98.91;93352.66;5015630;28;20227;-82
2021/12/10 16:07:25;;;;;;;2.20;1.60;;;;;;;0.49;98.86;93359.94;5004876;28;20198;-83
2021/12/10 16:09:59;;;;;;;2.50;1.20;;;;;;;0.46;99.53;93370.44;4997019;28;20245;-82
2021/12/10 16:12:26;;;;;;;1.50;1.40;;;;;;;0.52;99.44;93373.22;5010379;28;20185;-82
2021/12/10 16:14:53;;;;;;;1.30;1.20;;;;;;;0.50;99.52;93366.66;4980492;28;20212;-82
2021/12/10 16:17:18;;;;;;;5.83;1.90;;;;;;;0.50;99.86;93374.31;4990666;28;20550;-81
2021/12/10 16:19:46;;;;;;;1.30;1.20;;;;;;;0.54;100.00;93379.00;4979774;28;20187;-81
2021/12/10 16:22:23;;;;;;;1.80;1.70;;;;;;;0.56;99.87;93389.09;5012735;28;20267;-82
2021/12/10 16:24:55;;;;;;;1.53;1.30;;;;;;;0.60;99.77;93376.81;4966738;28;20211;-83
2021/12/10 16:27:25;;;;;;;1.63;1.53;;;;;;;0.63;99.46;93376.56;4974644;28;20218;-83
2021/12/10 16:29:59;;;;;;;2.03;1.67;;;;;;;0.64;99.41;93381.53;4979309;28;20217;-81
2021/12/10 16:32:32;;;;;;;3.20;2.23;;;;;;;0.65;99.40;93384.88;4996279;28;20183;-82
2021/12/10 16:35:06;;;;;;;2.00;1.80;;;;;;;0.71;99.37;93389.44;4999954;28;20302;-81
2021/12/10 16:37:34;;;;;;;19.77;10.60;;;;;;;0.63;99.51;93387.59;4978722;28;20295;-85
2021/12/10 16:40:03;;;;;;;14.20;7.90;;;;;;;0.66;99.53;93394.97;4997658;28;20198;-83
2021/12/10 16:42:28;;;;;;;7.00;4.43;;;;;;;0.70;99.33;93392.91;4981441;28;20739;-83
2021/12/10 16:45:10;;;;;;;5.60;4.23;;;;;;;0.70;99.18;93401.38;4997664;28;20211;-84
2021/12/10 16:47:39;;;;;;;3.80;3.40;;;;;;;0.80;98.63;93406.47;4984492;28;20183;-83
2021/12/10 18:04:56;;;;;;;2.03;1.83;;;;;;;1.01;97.13;93547.63;4934763;29;20234;-83
2021/12/10 18:07:23;;;;;;;3.03;2.30;;;;;;;1.09;96.74;93568.19;4934493;29;20204;-79
2021/12/10 18:24:40;;;;;;;3.53;2.30;;;;;;;1.05;96.67;93581.34;4772041;30;20283;-83
2021/12/10 18:27:42;;;;;;;4.40;3.17;;;;;;;1.06;96.43;93596.59;4780988;29;20195;-83
2021/12/10 18:33:55;;;;;;;5.40;3.30;;;;;;;1.07;96.95;93605.84;4773451;30;20191;-83
2021/12/10 18:36:49;;;;;;;4.93;3.00;;;;;;;1.08;96.48;93612.59;4790403;30;20211;-82
2021/12/10 18:39:59;;;;;;;4.50;2.60;;;;;;;1.00;96.56;93609.09;4793256;29;20213;-84
2021/12/10 18:42:46;;;;;;;4.53;2.43;;;;;;;1.07;96.44;93621.19;4798898;29;20203;-83
2021/12/10 18:45:32;;;;;;;4.07;2.53;;;;;;;1.07;96.43;93626.31;4814384;29;20323;-85
2021/12/10 18:48:18;;;;;;;6.03;2.20;;;;;;;1.07;95.87;93640.84;4829902;29;20663;-86
2021/12/10 18:51:05;;;;;;;4.87;3.27;;;;;;;1.07;96.35;93640.84;4825711;29;20208;-82
2021/12/10 18:53:42;;;;;;;3.37;2.70;;;;;;;1.12;95.62;93641.22;4821075;29;20202;-83
2021/12/10 18:56:11;;;;;;;3.70;2.70;;;;;;;1.15;95.23;93648.63;4887296;29;20186;-85
2021/12/10 18:58:43;;;;;;;4.37;3.17;;;;;;;1.09;95.08;93660.22;4885046;29;20203;-84
2021/12/10 19:01:29;;;;;;;3.53;2.63;;;;;;;1.14;94.93;93652.09;4885483;29;20211;-86
2021/12/10 19:04:16;;;;;;;8.43;3.20;;;;;;;1.10;95.71;93666.13;4883482;29;20618;-84
2021/12/10 19:06:44;;;;;;;6.17;4.40;;;;;;;1.11;94.97;93658.31;4868119;29;20235;-83
2021/12/10 19:09:15;;;;;;;2.93;2.27;;;;;;;1.11;95.28;93660.06;4850656;29;20724;-85
2021/12/10 19:11:42;;;;;;;5.10;2.70;;;;;;;1.11;95.17;93673.66;4894119;29;20194;-85
2021/12/10 19:14:20;;;;;;;4.07;2.97;;;;;;;1.10;95.08;93687.38;4901946;29;20239;-84
2021/12/10 19:16:56;;;;;;;5.13;3.87;;;;;;;1.10;94.81;93682.25;4903560;29;20190;-84
2021/12/10 19:19:30;;;;;;;5.20;2.57;;;;;;;1.06;94.89;93685.22;4888302;29;20714;-84
2021/12/10 19:22:01;;;;;;;4.90;2.50;;;;;;;1.09;94.69;93695.19;4887589;29;20190;-84
2021/12/10 19:24:38;;;;;;;7.00;2.60;;;;;;;1.10;95.27;93696.81;4918320;29;20232;-85
2021/12/10 19:27:15;;;;;;;4.03;2.30;;;;;;;1.04;95.44;93698.13;4902752;29;20597;-84
2021/12/10 19:29:42;;;;;;;3.50;1.80;;;;;;;1.03;95.66;93701.63;4938112;29;20187;-84
2021/12/10 19:32:11;;;;;;;3.43;2.00;;;;;;;1.08;95.79;93708.91;4904231;29;20195;-84
2021/12/10 19:34:58;;;;;;;3.53;1.70;;;;;;;1.04;96.05;93715.22;4887215;29;20220;-87
2021/12/10 19:37:25;;;;;;;2.60;1.60;;;;;;;0.96;96.63;93715.91;4934463;29;20279;-84
2021/12/10 19:40:00;;;;;;;3.23;2.17;;;;;;;0.98;96.75;93721.69;4918231;29;20432;-85
2021/12/10 19:42:32;;;;;;;5.87;3.20;;;;;;;0.95;96.62;93724.50;4917926;29;20674;-84
2021/12/10 19:45:02;;;;;;;4.67;2.83;;;;;;;0.94;97.38;93727.19;4902772;29;20202;-86
2021/12/10 19:47:34;;;;;;;4.03;2.17;;;;;;;0.91;97.65;93730.03;4918954;29;20217;-84
2021/12/10 19:50:10;;;;;;;2.37;2.10;;;;;;;0.84;97.61;93727.19;4918783;29;20277;-84
2021/12/10 19:52:38;;;;;;;2.70;1.73;;;;;;;0.87;97.80;93726.91;4918253;29;20234;-85
2021/12/10 19:55:10;;;;;;;3.37;2.43;;;;;;;0.85;97.36;93733.91;4919502;29;20235;-85
2021/12/10 19:57:41;;;;;;;2.97;2.30;;;;;;;0.86;97.95;93743.19;4919401;29;20282;-85
2021/12/10 20:00:23;;;;;;;3.90;2.33;;;;;;;0.81;98.23;93735.94;4904390;29;20345;-83
2021/12/10 20:02:59;;;;;;;5.17;2.77;;;;;;;0.82;98.09;93746.97;4905574;29;20213;-85
2021/12/10 20:05:28;;;;;;;2.03;1.50;;;;;;;0.85;97.98;93744.94;4902259;29;20229;-84
2021/12/10 20:07:59;;;;;;;3.73;2.17;;;;;;;0.84;97.98;93748.44;4917798;29;20190;-83
2021/12/10 20:10:30;;;;;;;2.17;1.37;;;;;;;0.77;98.23;93757.56;4903462;29;20185;-85
2021/12/10 20:13:20;;;;;;;1.90;1.47;;;;;;;0.77;98.17;93767.78;4902572;29;20564;-85
2021/12/10 20:15:59;;;;;;;3.63;1.73;;;;;;;0.85;98.24;93764.59;4887497;29;20227;-86
2021/12/10 20:18:40;;;;;;;2.57;1.33;;;;;;;0.81;97.87;93771.72;4918431;29;20204;-84
2021/12/10 20:21:15;;;;;;;2.00;1.50;;;;;;;0.75;98.25;93789.31;4903060;29;20163;-92